createdAt,value
2022-09-28T00:01:16.287Z,60.39
2022-09-28T00:03:44.538Z,60.66
2022-09-28T00:06:15.756Z,60.34
2022-09-28T00:08:45.394Z,60.92
2022-09-28T00:11:15.996Z,61.54
2022-09-28T00:13:45.561Z,61.87
2022-09-28T00:16:15.969Z,61.55
2022-09-28T00:18:45.653Z,60.08
2022-09-28T00:21:16.339Z,60.42
2022-09-28T00:24:04.495Z,59.50
2022-09-28T00:26:34.418Z,59.14
2022-09-28T00:29:04.140Z,60.83
2022-09-28T00:31:34.006Z,59.56
2022-09-28T00:34:04.889Z,60.54
2022-09-28T00:36:36.030Z,62.24
2022-09-28T00:39:08.819Z,61.59
2022-09-28T00:41:37.110Z,61.28
2022-09-28T00:44:38.442Z,62.16
2022-09-28T00:47:26.883Z,60.77
2022-09-28T00:49:58.621Z,60.90
2022-09-28T00:52:31.011Z,60.77
2022-09-28T00:55:03.069Z,61.16
2022-09-28T00:57:32.099Z,61.01
2022-09-28T01:00:01.883Z,61.20
2022-09-28T01:02:30.036Z,60.50
2022-09-28T01:04:59.915Z,60.76
2022-09-28T01:07:28.768Z,61.04
2022-09-28T01:09:56.932Z,61.02
2022-09-28T01:12:26.228Z,61.09
2022-09-28T01:14:54.462Z,61.00
2022-09-28T01:17:27.327Z,60.39
2022-09-28T01:20:45.172Z,61.20
2022-09-28T01:23:38.654Z,61.23
2022-09-28T01:26:41.857Z,62.16
2022-09-28T01:29:18.162Z,62.93
2022-09-28T01:31:52.332Z,62.12
2022-09-28T01:34:27.488Z,61.85
2022-09-28T01:37:00.104Z,61.73
2022-09-28T01:39:32.571Z,61.64
2022-09-28T01:42:07.206Z,61.18
2022-09-28T01:44:39.937Z,61.78
2022-09-28T01:47:14.065Z,61.19
2022-09-28T01:49:47.682Z,61.37
2022-09-28T01:52:21.507Z,61.64
2022-09-28T01:54:54.470Z,62.88
2022-09-28T01:57:28.265Z,62.43
2022-09-28T02:00:02.290Z,62.05
2022-09-28T02:02:48.315Z,62.30
2022-09-28T02:05:22.667Z,62.03
2022-09-28T02:07:55.772Z,62.73
2022-09-28T02:10:28.701Z,61.44
2022-09-28T02:13:03.676Z,61.76
2022-09-28T02:15:36.465Z,62.30
2022-09-28T02:18:05.058Z,61.85
2022-09-28T02:20:35.478Z,61.48
2022-09-28T02:23:05.774Z,61.48
2022-09-28T02:25:41.688Z,62.16
2022-09-28T02:28:14.427Z,61.60
2022-09-28T02:30:45.082Z,61.77
2022-09-28T02:33:20.476Z,61.80
2022-09-28T02:35:48.618Z,62.08
2022-09-28T02:38:18.236Z,62.14
2022-09-28T02:40:58.623Z,62.81
2022-09-28T02:43:41.228Z,61.91
2022-09-28T02:46:25.586Z,62.05
2022-09-28T02:49:27.847Z,61.81
2022-09-28T02:52:26.683Z,61.99
2022-09-28T02:55:25.589Z,61.17
2022-09-28T02:58:18.327Z,61.13
2022-09-28T03:00:56.869Z,61.08
2022-09-28T03:03:35.706Z,61.01
2022-09-28T03:06:08.751Z,60.98
2022-09-28T03:08:47.283Z,61.20
2022-09-28T03:11:22.691Z,60.63
2022-09-28T03:13:52.940Z,61.39
2022-09-28T03:16:27.527Z,61.29
2022-09-28T03:18:55.908Z,60.19
2022-09-28T03:21:23.937Z,61.04
2022-09-28T03:23:52.443Z,61.31
2022-09-28T03:26:20.346Z,60.83
2022-09-28T03:28:48.417Z,60.54
2022-09-28T03:31:22.577Z,61.38
2022-09-28T03:33:52.971Z,62.17
2022-09-28T03:36:20.966Z,61.47
2022-09-28T03:38:49.100Z,60.57
2022-09-28T03:41:17.104Z,61.43
2022-09-28T03:43:45.258Z,60.57
2022-09-28T03:46:15.034Z,60.71
2022-09-28T03:48:47.786Z,60.36
2022-09-28T03:51:17.552Z,60.70
2022-09-28T03:53:45.510Z,61.67
2022-09-28T03:56:15.038Z,61.01
2022-09-28T03:58:44.038Z,60.84
2022-09-28T04:01:17.683Z,59.75
2022-09-28T04:03:48.432Z,60.95
2022-09-28T04:06:17.808Z,61.14
2022-09-28T04:08:45.738Z,60.51
2022-09-28T04:11:14.602Z,60.58
2022-09-28T04:13:42.807Z,60.84
2022-09-28T04:16:14.301Z,61.10
2022-09-28T04:18:46.587Z,61.17
2022-09-28T04:21:28.142Z,60.81
2022-09-28T04:24:02.474Z,61.75
2022-09-28T04:26:30.786Z,61.48
2022-09-28T04:29:16.108Z,61.32
2022-09-28T04:31:52.629Z,61.05
2022-09-28T04:34:23.370Z,62.30
2022-09-28T04:36:52.703Z,61.37
2022-09-28T04:39:21.559Z,61.28
2022-09-28T04:41:52.806Z,60.69
2022-09-28T04:44:20.782Z,60.41
2022-09-28T04:46:50.967Z,60.85
2022-09-28T04:49:41.695Z,60.72
2022-09-28T04:52:18.278Z,61.05
2022-09-28T04:54:50.788Z,60.73
2022-09-28T04:57:19.066Z,61.32
2022-09-28T04:59:47.651Z,60.27
2022-09-28T05:02:15.622Z,60.95
2022-09-28T05:05:02.251Z,60.12
2022-09-28T05:08:09.758Z,59.70
2022-09-28T05:10:40.392Z,60.77
2022-09-28T05:13:08.947Z,60.28
2022-09-28T05:15:41.686Z,61.00
2022-09-28T05:18:10.044Z,60.40
2022-09-28T05:20:46.678Z,60.33
2022-09-28T05:23:16.485Z,60.55
2022-09-28T05:25:45.312Z,59.87
2022-09-28T05:28:29.020Z,61.27
2022-09-28T05:31:29.676Z,60.62
2022-09-28T05:34:21.944Z,61.04
2022-09-28T05:36:49.874Z,61.60
2022-09-28T05:39:20.261Z,60.32
2022-09-28T05:41:48.281Z,61.11
2022-09-28T05:44:16.355Z,61.31
2022-09-28T05:46:44.768Z,60.31
2022-09-28T05:49:14.023Z,60.84
2022-09-28T05:51:41.942Z,61.22
2022-09-28T05:54:10.634Z,61.01
2022-09-28T05:56:43.891Z,62.39
2022-09-28T05:59:12.281Z,62.31
2022-09-28T06:01:40.485Z,62.27
2022-09-28T06:04:11.243Z,62.15
2022-09-28T06:06:39.632Z,62.02
2022-09-28T06:09:08.075Z,62.13
2022-09-28T06:11:46.036Z,61.20
2022-09-28T06:14:34.283Z,60.89
2022-09-28T06:17:02.368Z,61.99
2022-09-28T06:19:30.409Z,61.55
2022-09-28T06:22:09.014Z,60.76
2022-09-28T06:24:45.602Z,61.42
2022-09-28T06:27:15.007Z,61.52
2022-09-28T06:29:43.470Z,61.25
2022-09-28T06:32:12.426Z,61.25
2022-09-28T06:34:43.292Z,61.38
2022-09-28T06:37:11.304Z,61.26
2022-09-28T06:39:39.290Z,61.72
2022-09-28T06:42:07.336Z,62.85
2022-09-28T06:45:06.884Z,62.09
2022-09-28T06:47:54.271Z,60.70
2022-09-28T06:50:32.203Z,60.69
2022-09-28T06:53:24.875Z,60.72
2022-09-28T06:56:03.262Z,61.00
2022-09-28T06:58:33.136Z,61.64
2022-09-28T07:01:04.517Z,60.79
2022-09-28T07:03:43.996Z,61.21
2022-09-28T07:06:41.147Z,60.95
2022-09-28T07:09:32.665Z,61.16
2022-09-28T07:12:20.846Z,59.88
2022-09-28T07:14:57.293Z,60.59
2022-09-28T07:17:29.355Z,60.71
2022-09-28T07:20:10.070Z,59.94
2022-09-28T07:22:43.639Z,60.46
2022-09-28T07:25:17.318Z,59.95
2022-09-28T07:28:09.469Z,60.37
2022-09-28T07:30:57.739Z,59.63
2022-09-28T07:33:51.154Z,60.40
2022-09-28T07:36:36.632Z,60.64
2022-09-28T07:39:05.012Z,60.44
2022-09-28T07:41:32.773Z,60.40
2022-09-28T07:44:06.312Z,59.85
2022-09-28T07:46:37.799Z,59.40
2022-09-28T07:49:12.766Z,59.14
2022-09-28T07:51:56.437Z,59.89
2022-09-28T07:54:39.453Z,59.45
2022-09-28T07:57:27.647Z,59.04
2022-09-28T08:00:09.223Z,59.11
2022-09-28T08:02:45.259Z,58.53
2022-09-28T08:05:19.732Z,58.97
2022-09-28T08:07:48.544Z,59.88
2022-09-28T08:10:18.153Z,59.00
2022-09-28T08:13:12.630Z,58.87
2022-09-28T08:15:52.979Z,58.37
2022-09-28T08:18:39.470Z,58.30
2022-09-28T08:21:29.354Z,58.13
2022-09-28T08:23:57.533Z,58.95
2022-09-28T08:26:25.791Z,58.84
2022-09-28T08:28:53.881Z,58.25
2022-09-28T08:31:40.098Z,58.30
2022-09-28T08:34:22.532Z,58.72
2022-09-28T08:36:59.158Z,58.61
2022-09-28T08:39:41.883Z,58.65
2022-09-28T08:42:37.107Z,58.76
2022-09-28T08:45:28.523Z,58.38
2022-09-28T08:49:01.138Z,58.83
2022-09-28T08:52:01.723Z,58.71
2022-09-28T08:54:49.007Z,58.31
2022-09-28T08:57:31.986Z,58.53
2022-09-28T09:00:01.427Z,58.91
2022-09-28T09:02:39.771Z,58.11
2022-09-28T09:05:17.111Z,58.57
2022-09-28T09:08:20.170Z,58.28
2022-09-28T09:10:54.462Z,57.83
2022-09-28T09:13:56.029Z,58.08
2022-09-28T09:16:35.200Z,57.35
2022-09-28T09:19:35.566Z,57.79
2022-09-28T09:22:18.533Z,58.06
2022-09-28T09:24:52.879Z,57.93
2022-09-28T09:27:49.707Z,57.49
2022-09-28T09:30:22.077Z,57.66
2022-09-28T09:33:11.377Z,57.82
2022-09-28T09:36:10.774Z,57.34
2022-09-28T09:39:15.223Z,58.22
2022-09-28T09:42:22.309Z,57.39
2022-09-28T09:45:26.482Z,57.24
2022-09-28T09:48:13.703Z,56.21
2022-09-28T09:50:49.291Z,55.85
2022-09-28T09:53:25.314Z,57.21
2022-09-28T09:55:59.528Z,56.62
2022-09-28T09:58:54.682Z,55.65
2022-09-28T10:01:35.708Z,57.10
2022-09-28T10:04:40.376Z,56.72
2022-09-28T10:07:24.492Z,55.40
2022-09-28T10:10:00.692Z,56.50
2022-09-28T10:12:45.640Z,56.71
2022-09-28T10:15:20.258Z,56.06
2022-09-28T10:18:01.983Z,56.33
2022-09-28T10:20:59.113Z,56.00
2022-09-28T10:23:46.292Z,56.95
2022-09-28T10:26:25.322Z,55.43
2022-09-28T10:28:58.772Z,56.53
2022-09-28T10:31:43.850Z,55.73
2022-09-28T10:34:28.101Z,56.50
2022-09-28T10:37:00.593Z,56.33
2022-09-28T10:39:37.831Z,55.91
2022-09-28T10:42:09.655Z,56.19
2022-09-28T10:44:51.387Z,56.47
2022-09-28T10:47:45.453Z,55.72
2022-09-28T10:50:22.310Z,55.57
2022-09-28T10:52:54.207Z,55.47
2022-09-28T10:56:01.034Z,56.19
2022-09-28T10:58:35.050Z,55.94
2022-09-28T11:01:09.355Z,56.27
2022-09-28T11:03:50.917Z,56.18
2022-09-28T11:06:26.765Z,55.55
2022-09-28T11:08:57.679Z,56.77
2022-09-28T11:11:25.863Z,55.63
2022-09-28T11:14:03.461Z,55.31
2022-09-28T11:16:37.595Z,56.09
2022-09-28T11:19:28.764Z,56.52
2022-09-28T11:21:56.843Z,55.88
2022-09-28T11:24:33.071Z,56.33
2022-09-28T11:27:04.975Z,55.27
2022-09-28T11:29:38.647Z,55.03
2022-09-28T11:32:31.673Z,56.02
2022-09-28T11:35:24.078Z,56.37
2022-09-28T11:38:04.603Z,56.22
2022-09-28T11:41:07.496Z,55.70
2022-09-28T11:44:07.410Z,54.96
2022-09-28T11:46:45.307Z,56.09
2022-09-28T11:49:27.464Z,55.73
2022-09-28T11:52:01.807Z,55.20
2022-09-28T11:54:35.520Z,55.17
2022-09-28T11:57:06.410Z,56.42
2022-09-28T11:59:40.976Z,55.13
2022-09-28T12:02:16.920Z,54.69
2022-09-28T12:04:57.838Z,54.88
2022-09-28T12:07:35.644Z,54.62
2022-09-28T12:10:14.756Z,55.35
2022-09-28T12:12:51.263Z,55.27
2022-09-28T12:15:23.006Z,55.47
2022-09-28T12:17:55.953Z,54.55
2022-09-28T12:20:28.047Z,55.41
2022-09-28T12:23:05.072Z,55.83
2022-09-28T12:25:40.663Z,55.71
2022-09-28T12:28:18.149Z,55.47
2022-09-28T12:30:48.431Z,55.00
2022-09-28T12:33:16.592Z,53.51
2022-09-28T12:36:03.299Z,54.73
2022-09-28T12:39:17.558Z,53.59
2022-09-28T12:41:58.329Z,54.16
2022-09-28T12:44:48.176Z,54.72
2022-09-28T12:47:33.099Z,54.17
2022-09-28T12:53:21.742Z,54.39
2022-09-28T12:56:02.716Z,53.36
2022-09-28T12:58:54.043Z,53.00
2022-09-28T13:01:38.850Z,53.97
2022-09-28T13:04:26.068Z,54.95
2022-09-28T13:07:02.558Z,52.75
2022-09-28T13:09:39.239Z,53.63
2022-09-28T13:12:25.942Z,54.53
2022-09-28T13:15:29.126Z,54.37
2022-09-28T13:18:19.125Z,54.18
2022-09-28T13:21:04.477Z,53.70
2022-09-28T13:23:37.387Z,52.93
2022-09-28T13:26:14.522Z,51.77
2022-09-28T13:28:46.957Z,51.91
2022-09-28T13:31:21.163Z,51.94
2022-09-28T13:33:50.933Z,52.13
2022-09-28T13:36:39.280Z,53.42
2022-09-28T13:39:51.950Z,52.19
2022-09-28T13:42:37.106Z,51.71
2022-09-28T13:45:33.461Z,52.05
2022-09-28T13:48:13.775Z,52.56
2022-09-28T13:51:09.022Z,52.46
2022-09-28T13:53:51.050Z,53.00
2022-09-28T13:56:28.262Z,52.22
2022-09-28T13:59:02.379Z,52.43
2022-09-28T14:01:39.581Z,53.53
2022-09-28T14:04:19.638Z,53.29
2022-09-28T14:06:55.496Z,53.38
2022-09-28T14:09:43.969Z,52.77
2022-09-28T14:12:45.327Z,53.96
2022-09-28T14:15:46.191Z,53.14
2022-09-28T14:18:28.465Z,53.01
2022-09-28T14:21:08.149Z,54.05
2022-09-28T14:23:52.718Z,53.59
2022-09-28T14:26:48.553Z,53.73
2022-09-28T14:29:28.418Z,53.70
2022-09-28T14:31:58.822Z,53.03
2022-09-28T14:34:42.817Z,54.09
2022-09-28T14:37:46.654Z,54.13
2022-09-28T14:40:51.106Z,52.72
2022-09-28T14:43:27.510Z,53.40
2022-09-28T14:46:29.334Z,53.51
2022-09-28T14:49:01.678Z,52.41
2022-09-28T14:52:04.279Z,51.68
2022-09-28T14:54:54.129Z,52.53
2022-09-28T14:57:26.419Z,52.83
2022-09-28T14:59:57.018Z,51.67
2022-09-28T15:02:30.356Z,50.95
2022-09-28T15:05:02.317Z,52.22
2022-09-28T15:07:46.120Z,51.90
2022-09-28T15:10:27.478Z,51.22
2022-09-28T15:12:57.227Z,51.60
2022-09-28T15:15:35.571Z,51.46
2022-09-28T15:18:33.268Z,52.00
2022-09-28T15:21:01.607Z,50.75
2022-09-28T15:23:37.311Z,51.26
2022-09-28T15:26:08.465Z,51.70
2022-09-28T15:28:39.326Z,52.65
2022-09-28T15:31:07.398Z,51.10
2022-09-28T15:33:53.817Z,51.00
2022-09-28T15:36:25.045Z,52.02
2022-09-28T15:38:58.463Z,50.61
2022-09-28T15:41:27.436Z,52.23
2022-09-28T15:44:23.582Z,51.98
2022-09-28T15:46:52.155Z,50.82
2022-09-28T15:49:28.036Z,51.58
2022-09-28T15:51:57.259Z,50.13
2022-09-28T15:54:35.076Z,50.64
2022-09-28T15:57:04.192Z,50.78
2022-09-28T15:59:34.792Z,49.86
2022-09-28T16:02:10.809Z,51.38
2022-09-28T16:04:50.350Z,50.02
2022-09-28T16:07:33.276Z,51.78
2022-09-28T16:10:16.379Z,50.92
2022-09-28T16:12:48.882Z,49.32
2022-09-28T16:15:21.764Z,49.94
2022-09-28T16:17:56.800Z,51.23
2022-09-28T16:20:29.566Z,50.80
2022-09-28T16:23:05.559Z,50.56
2022-09-28T16:25:39.090Z,51.15
2022-09-28T16:28:07.607Z,50.82
2022-09-28T16:30:36.066Z,52.74
2022-09-28T16:33:06.839Z,51.00
2022-09-28T16:35:51.871Z,53.78
2022-09-28T16:38:21.038Z,51.91
2022-09-28T16:40:53.917Z,52.44
2022-09-28T16:43:27.060Z,51.30
2022-09-28T16:45:57.775Z,53.15
2022-09-28T16:48:28.030Z,52.11
2022-09-28T16:50:56.235Z,52.49
2022-09-28T16:53:50.129Z,53.39
2022-09-28T16:56:19.593Z,53.12
2022-09-28T16:58:50.376Z,53.50
2022-09-28T17:01:19.789Z,53.19
2022-09-28T17:03:50.050Z,54.05
2022-09-28T17:06:19.574Z,53.33
2022-09-28T17:08:47.783Z,54.08
2022-09-28T17:11:22.785Z,54.81
2022-09-28T17:13:58.219Z,54.39
2022-09-28T17:16:57.344Z,54.36
2022-09-28T17:19:25.077Z,54.97
2022-09-28T17:21:53.988Z,55.41
2022-09-28T17:24:24.672Z,55.88
2022-09-28T17:26:53.289Z,55.42
2022-09-28T17:29:22.613Z,55.12
2022-09-28T17:31:50.677Z,55.51
2022-09-28T17:34:19.880Z,54.94
2022-09-28T17:36:48.455Z,55.48
2022-09-28T17:39:18.480Z,54.71
2022-09-28T17:41:46.791Z,55.49
2022-09-28T17:44:19.299Z,55.14
2022-09-28T17:46:50.747Z,54.21
2022-09-28T17:49:19.193Z,55.33
2022-09-28T17:51:47.159Z,54.69
2022-09-28T17:54:17.046Z,54.30
2022-09-28T17:56:46.130Z,54.37
2022-09-28T17:59:19.840Z,54.47
2022-09-28T18:01:49.327Z,53.80
2022-09-28T18:04:47.094Z,53.58
2022-09-28T18:07:07.455Z,54.22
2022-09-28T18:09:35.291Z,54.85
2022-09-28T18:12:05.774Z,53.49
2022-09-28T18:14:33.799Z,55.29
2022-09-28T18:17:02.976Z,54.83
2022-09-28T18:19:32.297Z,53.30
2022-09-28T18:22:01.582Z,54.10
2022-09-28T18:24:29.778Z,53.48
2022-09-28T18:26:57.625Z,52.10
2022-09-28T18:29:26.219Z,52.33
2022-09-28T18:31:55.276Z,52.91
2022-09-28T18:34:24.641Z,52.81
2022-09-28T18:36:52.443Z,53.07
2022-09-28T18:39:20.434Z,54.45
2022-09-28T18:41:48.507Z,52.14
2022-09-28T18:44:16.378Z,52.41
2022-09-28T18:46:44.541Z,53.96
2022-09-28T18:49:12.503Z,53.94
2022-09-28T18:51:41.845Z,53.62
2022-09-28T18:54:09.650Z,51.08
2022-09-28T18:56:38.119Z,53.18
2022-09-28T18:59:09.962Z,52.17
2022-09-28T19:01:41.685Z,52.87
2022-09-28T19:04:13.576Z,53.80
2022-09-28T19:06:44.492Z,52.86
2022-09-28T19:09:13.286Z,53.27
2022-09-28T19:11:41.296Z,53.70
2022-09-28T19:14:11.579Z,53.67
2022-09-28T19:16:39.651Z,52.60
2022-09-28T19:19:07.626Z,52.78
2022-09-28T19:21:35.725Z,53.33
2022-09-28T19:24:05.839Z,53.82
2022-09-28T19:26:34.380Z,52.43
2022-09-28T19:29:03.026Z,52.17
2022-09-28T19:31:31.262Z,52.34
2022-09-28T19:33:59.478Z,53.55
2022-09-28T19:36:29.187Z,51.14
2022-09-28T19:38:58.552Z,51.62
2022-09-28T19:41:51.425Z,50.96
2022-09-28T19:44:25.626Z,52.23
2022-09-28T19:46:55.709Z,51.20
2022-09-28T19:49:25.356Z,52.27
2022-09-28T19:52:13.927Z,52.32
2022-09-28T19:54:45.562Z,52.98
2022-09-28T19:57:18.652Z,52.05
2022-09-28T19:59:52.367Z,51.53
2022-09-28T20:02:21.240Z,52.28
2022-09-28T20:04:49.495Z,52.66
2022-09-28T20:07:17.644Z,51.45
2022-09-28T20:09:45.724Z,52.50
2022-09-28T20:12:16.637Z,52.60
2022-09-28T20:14:44.603Z,51.59
2022-09-28T20:17:12.560Z,53.50
2022-09-28T20:19:40.545Z,53.08
2022-09-28T20:22:08.492Z,51.97
2022-09-28T20:24:36.415Z,53.28
2022-09-28T20:27:04.278Z,51.30
2022-09-28T20:29:34.717Z,52.50
2022-09-28T20:32:04.013Z,51.12
2022-09-28T20:34:33.520Z,51.18
2022-09-28T20:37:01.987Z,51.13
2022-09-28T20:39:29.955Z,50.54
2022-09-28T20:41:57.841Z,53.08
2022-09-28T20:44:25.807Z,52.74
2022-09-28T20:46:56.747Z,50.61
2022-09-28T20:49:24.727Z,51.87
2022-09-28T20:51:52.629Z,50.41
2022-09-28T20:54:24.310Z,52.87
2022-09-28T20:56:52.580Z,51.32
2022-09-28T20:59:22.820Z,52.86
2022-09-28T21:01:51.087Z,52.02
2022-09-28T21:04:20.775Z,51.51
2022-09-28T21:06:49.812Z,53.81
2022-09-28T21:09:17.684Z,51.18
2022-09-28T21:11:46.375Z,51.59
2022-09-28T21:14:14.275Z,52.00
2022-09-28T21:16:42.238Z,52.32
2022-09-28T21:19:10.171Z,52.13
2022-09-28T21:21:40.527Z,52.00
2022-09-28T21:24:09.193Z,51.07
2022-09-28T21:26:37.370Z,50.62
2022-09-28T21:29:07.310Z,52.45
2022-09-28T21:31:39.834Z,51.47
2022-09-28T21:34:08.477Z,51.70
2022-09-28T21:36:36.376Z,52.05
2022-09-28T21:39:10.083Z,52.95
2022-09-28T21:41:38.463Z,50.62
2022-09-28T21:44:06.973Z,50.57
2022-09-28T21:46:35.422Z,51.65
2022-09-28T21:49:04.327Z,52.56
2022-09-28T21:51:32.314Z,51.12
2022-09-28T21:54:00.698Z,51.75
2022-09-28T21:56:30.061Z,50.17
2022-09-28T21:59:01.299Z,52.75
2022-09-28T22:01:29.668Z,52.80
2022-09-28T22:03:57.891Z,51.97
2022-09-28T22:06:28.944Z,51.96
2022-09-28T22:08:57.551Z,51.42
2022-09-28T22:11:27.049Z,50.36
2022-09-28T22:13:58.594Z,50.67
2022-09-28T22:16:28.723Z,52.27
2022-09-28T22:18:56.873Z,50.07
2022-09-28T22:21:26.915Z,50.54
2022-09-28T22:23:55.175Z,50.94
2022-09-28T22:26:24.911Z,52.30
2022-09-28T22:28:54.517Z,51.61
2022-09-28T22:31:25.823Z,51.27
2022-09-28T22:33:53.826Z,52.60
2022-09-28T22:36:22.171Z,51.13
2022-09-28T22:38:50.446Z,53.15
2022-09-28T22:41:20.831Z,50.59
2022-09-28T22:43:49.600Z,51.74
2022-09-28T22:46:20.065Z,51.30
2022-09-28T22:48:51.008Z,52.91
2022-09-28T22:51:19.318Z,50.90
2022-09-28T22:53:47.721Z,51.67
2022-09-28T22:56:18.926Z,51.59
2022-09-28T22:58:47.766Z,53.31
2022-09-28T23:01:18.569Z,53.06
2022-09-28T23:03:47.045Z,52.00
2022-09-28T23:06:18.070Z,52.21
2022-09-28T23:08:47.376Z,51.29
2022-09-28T23:11:15.512Z,52.52
2022-09-28T23:13:43.595Z,52.82
2022-09-28T23:16:13.135Z,50.95
2022-09-28T23:18:42.046Z,51.91
2022-09-28T23:21:12.286Z,51.59
2022-09-28T23:23:41.797Z,50.71
2022-09-28T23:26:14.137Z,52.41
2022-09-28T23:28:42.309Z,51.30
2022-09-28T23:31:11.930Z,50.26
2022-09-28T23:33:40.001Z,50.37
2022-09-28T23:36:08.884Z,50.44
2022-09-28T23:38:37.217Z,52.53
2022-09-28T23:41:06.988Z,52.53
2022-09-28T23:43:36.169Z,51.04
2022-09-28T23:46:04.483Z,52.77
2022-09-28T23:48:33.081Z,52.15
2022-09-28T23:51:01.228Z,52.24
2022-09-28T23:53:29.767Z,51.94
2022-09-28T23:55:57.658Z,51.36
2022-09-28T23:58:27.672Z,53.58
